Time;durP1;ratioP1;P1;durP2;ratioP2;P2;SDS_P1;SDS_P2;PMS_P1;PMS_P2;Temp;Humidity;BMP_temperature;BMP_pressure;BME280_temperature;BME280_humidity;BME280_pressure;Samples;Min_cycle;Max_cycle;Signal;HPM_P1;HPM_P2
2024/03/06 00:04:05;;;;;;;37.30;29.77;;;4.90;99.90;;;;;;12436022;28;20050;-35
2024/03/06 00:10:07;;;;;;;43.40;29.45;;;4.90;99.90;;;;;;12433659;28;20046;-35
2024/03/06 00:16:09;;;;;;;36.00;27.65;;;4.80;99.90;;;;;;12430556;28;20419;-36
2024/03/06 00:22:11;;;;;;;32.83;24.80;;;4.80;99.90;;;;;;12411224;28;20551;-36
2024/03/06 00:28:12;;;;;;;29.40;23.75;;;4.70;99.90;;;;;;12430243;28;20422;-36
2024/03/06 00:34:15;;;;;;;35.72;24.65;;;4.70;99.90;;;;;;12420160;28;20074;-36
2024/03/06 00:40:16;;;;;;;31.80;22.80;;;4.70;99.90;;;;;;12431578;28;20050;-36
2024/03/06 00:46:18;;;;;;;28.40;21.75;;;4.80;99.90;;;;;;12433768;28;20566;-35
2024/03/06 00:52:20;;;;;;;32.33;22.98;;;4.80;99.90;;;;;;12428269;28;20522;-35
2024/03/06 00:58:22;;;;;;;33.38;22.13;;;4.80;99.90;;;;;;12431939;28;20046;-35
2024/03/06 01:04:24;;;;;;;26.55;20.27;;;4.80;99.90;;;;;;12429645;28;20485;-36
2024/03/06 01:10:26;;;;;;;27.30;19.88;;;4.80;99.90;;;;;;12416022;28;20049;-35
2024/03/06 01:16:27;;;;;;;22.90;19.50;;;4.80;99.90;;;;;;12430650;28;20092;-35
2024/03/06 01:22:29;;;;;;;27.05;18.98;;;4.80;99.90;;;;;;12434071;28;20164;-35
2024/03/06 01:28:31;;;;;;;26.20;20.75;;;4.80;99.90;;;;;;12423774;28;20100;-35
2024/03/06 01:34:33;;;;;;;30.42;20.30;;;4.80;99.90;;;;;;12416679;28;20085;-35
2024/03/06 01:40:35;;;;;;;26.15;19.33;;;4.90;99.90;;;;;;12432234;28;20418;-35
2024/03/06 01:46:37;;;;;;;24.23;19.48;;;4.80;99.90;;;;;;12419474;28;20042;-36
2024/03/06 01:52:41;;;;;;;27.33;18.27;;;4.80;99.90;;;;;;12432171;28;20053;-36
2024/03/06 01:58:46;;;;;;;27.15;19.30;;;4.80;99.90;;;;;;12418873;28;20431;-36
2024/03/06 02:04:48;;;;;;;22.77;19.45;;;4.80;99.90;;;;;;12425181;28;20050;-36
2024/03/06 02:10:50;;;;;;;27.90;20.48;;;4.80;99.90;;;;;;12443415;28;20388;-36
2024/03/06 02:16:52;;;;;;;28.23;20.30;;;4.80;99.90;;;;;;12441231;28;20061;-36
2024/03/06 02:22:53;;;;;;;26.52;19.98;;;4.80;99.90;;;;;;12442822;28;20787;-35
2024/03/06 02:28:56;;;;;;;27.02;20.45;;;4.70;99.90;;;;;;12445967;28;20054;-35
2024/03/06 02:34:58;;;;;;;31.55;20.40;;;4.80;99.90;;;;;;12438517;28;20461;-35
2024/03/06 02:41:00;;;;;;;26.25;19.88;;;4.80;99.90;;;;;;12440999;28;20045;-36
2024/03/06 02:47:03;;;;;;;28.05;21.15;;;4.80;99.90;;;;;;12437768;28;20045;-36
2024/03/06 02:53:04;;;;;;;29.25;22.33;;;4.70;99.90;;;;;;12441499;28;20077;-36
2024/03/06 02:59:07;;;;;;;27.70;23.23;;;4.80;99.90;;;;;;12432454;28;20173;-35
2024/03/06 03:05:09;;;;;;;32.33;23.63;;;4.80;99.90;;;;;;12436290;28;20448;-35
2024/03/06 03:11:11;;;;;;;32.75;26.38;;;4.80;99.90;;;;;;12437211;28;20081;-35
2024/03/06 03:17:15;;;;;;;31.60;24.52;;;4.80;99.90;;;;;;12435738;28;20064;-35
2024/03/06 03:23:21;;;;;;;36.43;24.70;;;4.80;99.90;;;;;;12432055;28;20072;-35
2024/03/06 03:29:24;;;;;;;30.02;24.67;;;4.80;99.90;;;;;;12427514;28;20418;-36
2024/03/06 03:35:25;;;;;;;31.25;25.60;;;4.90;99.90;;;;;;12430884;28;20078;-36
2024/03/06 03:41:27;;;;;;;31.40;25.92;;;4.80;99.90;;;;;;12431339;28;20073;-35
2024/03/06 03:47:29;;;;;;;34.90;25.20;;;4.80;99.90;;;;;;12434169;28;20133;-35
2024/03/06 03:53:31;;;;;;;29.58;24.13;;;4.90;99.90;;;;;;12436615;28;20103;-35
2024/03/06 03:59:33;;;;;;;24.73;20.50;;;4.90;99.90;;;;;;12433243;28;20046;-35
2024/03/06 04:05:35;;;;;;;30.15;21.77;;;4.80;99.90;;;;;;12437346;28;20087;-36
2024/03/06 04:11:37;;;;;;;25.02;21.65;;;4.80;99.90;;;;;;12447558;28;20041;-35
2024/03/06 04:17:40;;;;;;;28.48;21.50;;;4.70;99.90;;;;;;12421949;28;20091;-35
2024/03/06 04:23:44;;;;;;;29.02;21.08;;;4.80;99.90;;;;;;12436450;28;20068;-36
2024/03/06 04:29:46;;;;;;;26.08;21.05;;;4.80;99.90;;;;;;12433228;28;20137;-35
2024/03/06 04:35:48;;;;;;;28.10;20.98;;;4.80;99.90;;;;;;12413718;28;20077;-36
2024/03/06 04:41:49;;;;;;;31.67;22.92;;;4.80;99.90;;;;;;12430717;28;20104;-35
2024/03/06 04:47:51;;;;;;;29.38;21.35;;;4.80;99.90;;;;;;12432095;28;20073;-35
2024/03/06 04:53:53;;;;;;;28.02;22.15;;;4.90;99.90;;;;;;12437346;28;20050;-35
2024/03/06 04:59:55;;;;;;;30.45;22.88;;;4.90;99.90;;;;;;12431231;28;20046;-35
2024/03/06 05:05:57;;;;;;;34.05;22.70;;;4.90;99.90;;;;;;12431431;28;20082;-36
2024/03/06 05:12:16;;;;;;;30.42;23.55;;;4.90;99.90;;;;;;12431789;28;20115;-35
2024/03/06 05:18:36;;;;;;;29.80;22.92;;;4.90;99.90;;;;;;12433321;28;20525;-35
2024/03/06 05:24:55;;;;;;;33.38;24.23;;;4.90;99.90;;;;;;12436614;28;20482;-35
2024/03/06 05:31:19;;;;;;;31.13;24.88;;;4.90;99.90;;;;;;12424195;28;20106;-35
2024/03/06 05:37:38;;;;;;;35.83;23.75;;;4.90;99.90;;;;;;12420777;28;20410;-35
2024/03/06 05:43:57;;;;;;;30.80;23.55;;;4.90;99.90;;;;;;12439095;28;20041;-35
2024/03/06 05:50:17;;;;;;;30.45;24.05;;;4.90;99.90;;;;;;12428622;28;20125;-35
2024/03/06 05:56:36;;;;;;;32.67;23.38;;;4.90;99.90;;;;;;12430916;28;20092;-35
2024/03/06 06:02:55;;;;;;;30.30;24.02;;;5.00;99.90;;;;;;12439160;28;20060;-35
2024/03/06 06:08:57;;;;;;;30.17;23.13;;;5.00;99.90;;;;;;12430491;28;20081;-35
2024/03/06 06:14:59;;;;;;;32.70;23.48;;;5.00;99.90;;;;;;12441768;28;20085;-35
2024/03/06 06:21:01;;;;;;;31.58;22.70;;;5.00;99.90;;;;;;12439754;28;20060;-36
2024/03/06 06:27:03;;;;;;;33.28;26.67;;;5.10;99.90;;;;;;12439299;28;20111;-35
2024/03/06 06:33:06;;;;;;;40.63;28.27;;;5.10;99.90;;;;;;12433588;28;20092;-36
2024/03/06 06:39:08;;;;;;;41.70;28.27;;;5.10;99.90;;;;;;12435136;28;20041;-35
2024/03/06 06:45:09;;;;;;;38.55;30.13;;;5.10;99.90;;;;;;12438331;28;20447;-36
2024/03/06 06:51:11;;;;;;;45.70;28.88;;;5.10;99.90;;;;;;12434285;28;20068;-36
2024/03/06 06:57:13;;;;;;;42.97;31.20;;;5.10;99.90;;;;;;12435075;28;20576;-36
2024/03/06 07:03:15;;;;;;;40.42;29.20;;;5.20;99.90;;;;;;12439984;28;20085;-36
2024/03/06 07:09:18;;;;;;;41.85;29.70;;;5.20;99.90;;;;;;12437618;28;20050;-36
2024/03/06 07:15:20;;;;;;;41.97;30.02;;;5.30;99.90;;;;;;12443087;28;20077;-36
2024/03/06 07:21:22;;;;;;;42.15;30.27;;;5.40;99.90;;;;;;12432276;28;20058;-36
2024/03/06 07:27:23;;;;;;;37.88;27.95;;;5.40;99.90;;;;;;12435358;28;20505;-35
2024/03/06 07:33:25;;;;;;;34.10;28.10;;;5.40;99.90;;;;;;12438478;28;20057;-35
2024/03/06 07:39:27;;;;;;;36.08;27.83;;;5.40;99.90;;;;;;12434918;28;20057;-36
2024/03/06 07:45:29;;;;;;;35.83;27.83;;;5.40;99.90;;;;;;12433825;28;20558;-35
2024/03/06 07:51:35;;;;;;;34.13;24.67;;;5.40;99.90;;;;;;12439634;28;20069;-36
2024/03/06 07:57:38;;;;;;;35.00;25.63;;;5.40;99.90;;;;;;12435099;28;20046;-35
2024/03/06 08:03:40;;;;;;;31.33;25.23;;;5.50;99.90;;;;;;12437970;28;20081;-36
2024/03/06 08:09:43;;;;;;;34.22;26.33;;;5.50;99.90;;;;;;12434934;28;20052;-35
2024/03/06 08:15:45;;;;;;;37.28;27.83;;;5.50;99.90;;;;;;12438247;28;20056;-35
2024/03/06 08:21:47;;;;;;;36.47;28.58;;;5.50;99.90;;;;;;12434574;28;20050;-36
2024/03/06 08:27:48;;;;;;;39.10;28.33;;;5.60;99.90;;;;;;12433705;28;20133;-36
2024/03/06 08:33:50;;;;;;;35.22;30.60;;;5.60;99.90;;;;;;12433400;28;20065;-36
2024/03/06 08:39:53;;;;;;;37.90;29.10;;;5.70;99.90;;;;;;12435007;28;20103;-36
2024/03/06 08:45:54;;;;;;;33.70;27.08;;;5.80;99.90;;;;;;12433912;28;20080;-35
2024/03/06 08:51:57;;;;;;;39.00;29.23;;;5.90;99.90;;;;;;12428575;28;20722;-36
2024/03/06 08:58:01;;;;;;;44.30;32.28;;;6.00;99.90;;;;;;12434170;28;20745;-36
2024/03/06 09:04:03;;;;;;;42.20;31.52;;;6.10;99.90;;;;;;12433213;28;20513;-35
2024/03/06 09:10:08;;;;;;;47.70;36.50;;;6.20;99.90;;;;;;12432282;28;20069;-35
2024/03/06 09:16:10;;;;;;;40.90;34.92;;;6.40;99.90;;;;;;12425397;28;20084;-35
2024/03/06 09:22:11;;;;;;;51.67;37.53;;;6.50;99.90;;;;;;12440576;28;20061;-36
2024/03/06 09:28:13;;;;;;;46.50;39.20;;;6.40;99.90;;;;;;12438606;28;20049;-36
2024/03/06 09:34:16;;;;;;;44.80;37.58;;;6.30;99.90;;;;;;12442371;28;20137;-36
2024/03/06 09:40:22;;;;;;;48.33;39.45;;;6.40;99.90;;;;;;12443795;28;20491;-36
2024/03/06 09:46:26;;;;;;;51.40;43.65;;;6.40;99.90;;;;;;12437555;28;20050;-36
2024/03/06 09:52:29;;;;;;;44.80;39.42;;;6.40;99.90;;;;;;12435573;28;20060;-36
2024/03/06 09:58:31;;;;;;;47.17;42.00;;;6.40;99.90;;;;;;12439826;28;20746;-36
2024/03/06 10:04:37;;;;;;;46.17;37.85;;;6.50;99.90;;;;;;12441900;28;20085;-36
2024/03/06 10:10:39;;;;;;;50.35;43.13;;;6.60;99.90;;;;;;12413914;28;20099;-35
2024/03/06 10:16:54;;;;;;;50.78;41.83;;;6.70;99.90;;;;;;12438085;28;20087;-36
2024/03/06 10:22:56;;;;;;;46.33;40.58;;;6.80;99.90;;;;;;12418531;28;20140;-36
2024/03/06 10:29:01;;;;;;;49.60;41.92;;;6.70;99.90;;;;;;12428688;28;20042;-36
2024/03/06 10:35:06;;;;;;;49.53;44.22;;;6.80;99.90;;;;;;12420870;28;20085;-35
2024/03/06 10:41:13;;;;;;;48.60;42.67;;;6.90;99.90;;;;;;12397098;28;20049;-36
2024/03/06 10:47:18;;;;;;;47.42;42.42;;;7.10;99.90;;;;;;12438670;28;20046;-36
2024/03/06 10:53:21;;;;;;;47.88;43.17;;;7.10;99.90;;;;;;12440195;28;20054;-36
2024/03/06 10:59:29;;;;;;;43.45;39.13;;;7.20;99.90;;;;;;12437420;28;20410;-36
2024/03/06 11:05:32;;;;;;;40.55;36.58;;;7.00;99.90;;;;;;12417404;28;20105;-36
2024/03/06 11:11:53;;;;;;;43.47;39.28;;;7.00;99.90;;;;;;12433497;28;20422;-36
2024/03/06 11:17:56;;;;;;;40.85;36.60;;;6.90;99.90;;;;;;12437074;28;20573;-35
2024/03/06 11:24:15;;;;;;;38.92;34.92;;;7.00;99.90;;;;;;12432805;28;20045;-36
2024/03/06 11:30:21;;;;;;;39.30;35.40;;;7.10;99.90;;;;;;12439192;28;20137;-36
2024/03/06 11:36:30;;;;;;;39.00;34.88;;;7.10;99.90;;;;;;12430842;28;20065;-35
2024/03/06 11:42:35;;;;;;;38.95;34.95;;;7.20;99.90;;;;;;12434375;28;20072;-36
2024/03/06 11:48:39;;;;;;;41.95;37.78;;;7.30;99.90;;;;;;12421440;28;20077;-35
2024/03/06 11:54:41;;;;;;;40.90;36.80;;;7.30;99.90;;;;;;12408633;28;20076;-36
2024/03/06 12:00:45;;;;;;;40.33;36.08;;;7.40;99.90;;;;;;12413522;28;20088;-36
2024/03/06 12:06:47;;;;;;;45.22;40.55;;;7.80;99.90;;;;;;12414761;28;21052;-35
2024/03/06 12:12:49;;;;;;;45.28;40.53;;;7.90;99.90;;;;;;12426026;28;20072;-36
2024/03/06 12:18:57;;;;;;;46.75;42.67;;;7.90;99.90;;;;;;12432184;28;20056;-35
2024/03/06 12:25:00;;;;;;;49.95;45.22;;;8.20;99.90;;;;;;12438385;28;20506;-36
2024/03/06 12:31:03;;;;;;;50.75;46.22;;;8.40;99.90;;;;;;12431718;28;20137;-36
2024/03/06 12:37:11;;;;;;;53.58;48.50;;;8.20;99.90;;;;;;12433291;28;20700;-36
2024/03/06 12:43:14;;;;;;;50.53;45.55;;;8.30;99.90;;;;;;12429038;28;20160;-36
2024/03/06 12:49:16;;;;;;;56.20;51.33;;;8.40;99.90;;;;;;12432452;28;20050;-36
2024/03/06 12:55:18;;;;;;;49.30;44.85;;;8.50;99.90;;;;;;12433154;28;20141;-36
2024/03/06 13:01:20;;;;;;;52.70;48.03;;;8.60;99.90;;;;;;12433145;28;20077;-36
2024/03/06 13:07:22;;;;;;;48.65;44.33;;;8.50;99.90;;;;;;12425602;28;20096;-36
2024/03/06 13:13:25;;;;;;;47.80;43.28;;;8.30;99.90;;;;;;12435679;28;20185;-36
2024/03/06 13:19:27;;;;;;;43.80;39.50;;;8.40;99.90;;;;;;12428413;28;20515;-36
2024/03/06 13:25:29;;;;;;;43.60;39.30;;;8.60;99.90;;;;;;12428276;28;21077;-35
2024/03/06 13:31:33;;;;;;;48.10;43.42;;;8.80;99.90;;;;;;12434789;28;20050;-36
2024/03/06 13:37:35;;;;;;;49.95;45.42;;;9.20;99.90;;;;;;12429980;28;20097;-36
2024/03/06 13:43:37;;;;;;;50.03;45.22;;;9.00;99.90;;;;;;12426322;28;20173;-34
2024/03/06 13:49:40;;;;;;;47.70;42.97;;;8.80;99.90;;;;;;12431831;28;20046;-36
2024/03/06 13:55:42;;;;;;;47.83;43.53;;;8.70;99.90;;;;;;12433606;28;20426;-36
2024/03/06 14:01:44;;;;;;;42.97;38.78;;;8.80;99.90;;;;;;12423432;28;20520;-35
2024/03/06 14:07:46;;;;;;;41.38;37.35;;;8.70;99.90;;;;;;12404905;28;20129;-36
2024/03/06 14:13:47;;;;;;;40.83;36.72;;;8.80;99.90;;;;;;12443020;28;20204;-35
2024/03/06 14:19:49;;;;;;;44.35;40.25;;;8.80;99.90;;;;;;12436257;28;20516;-36
2024/03/06 14:25:51;;;;;;;43.20;39.40;;;9.00;99.90;;;;;;12439719;28;20526;-36
2024/03/06 14:31:53;;;;;;;40.95;36.67;;;9.10;99.90;;;;;;12436525;28;20046;-36
2024/03/06 14:37:55;;;;;;;38.15;34.53;;;9.00;99.90;;;;;;12439873;28;20068;-36
2024/03/06 14:43:57;;;;;;;39.38;35.28;;;8.90;99.90;;;;;;12428028;28;20088;-36
2024/03/06 14:49:59;;;;;;;35.88;32.60;;;8.90;99.90;;;;;;12418700;28;20042;-35
2024/03/06 14:56:01;;;;;;;34.20;30.67;;;8.90;99.90;;;;;;12421219;28;20085;-35
2024/03/06 15:02:03;;;;;;;35.60;31.90;;;9.10;99.90;;;;;;12424043;28;20104;-36
2024/03/06 15:08:05;;;;;;;33.97;30.83;;;8.90;99.90;;;;;;12417188;28;20078;-36
2024/03/06 15:14:08;;;;;;;33.20;29.48;;;9.10;99.90;;;;;;12424666;28;20049;-36
2024/03/06 15:20:11;;;;;;;35.65;31.85;;;8.60;99.90;;;;;;12417280;28;20049;-36
2024/03/06 15:26:13;;;;;;;34.83;28.90;;;8.50;99.90;;;;;;12415392;28;20476;-36
2024/03/06 15:32:14;;;;;;;30.17;26.83;;;8.80;99.90;;;;;;12419892;28;20058;-36
2024/03/06 15:38:17;;;;;;;30.50;26.83;;;8.70;99.90;;;;;;12423691;28;20510;-35
2024/03/06 15:44:19;;;;;;;32.70;29.33;;;8.40;99.90;;;;;;12411817;28;20046;-35
2024/03/06 15:50:21;;;;;;;29.08;25.73;;;8.40;99.90;;;;;;12430277;28;20054;-36
2024/03/06 15:56:23;;;;;;;30.45;27.25;;;8.40;99.90;;;;;;12430735;28;20064;-36
2024/03/06 16:02:25;;;;;;;31.23;26.92;;;8.40;99.90;;;;;;12426375;28;20054;-35
2024/03/06 16:08:29;;;;;;;29.92;26.30;;;8.10;99.90;;;;;;12426986;28;20042;-36
2024/03/06 16:14:31;;;;;;;28.25;23.50;;;7.80;99.90;;;;;;12412439;28;20050;-35
2024/03/06 16:20:33;;;;;;;28.23;22.38;;;7.70;99.90;;;;;;12430573;28;20050;-36
2024/03/06 16:26:36;;;;;;;28.75;23.88;;;7.60;99.90;;;;;;12407112;28;20050;-35
2024/03/06 16:32:38;;;;;;;28.95;24.15;;;7.60;99.90;;;;;;12426317;28;20053;-36
2024/03/06 16:38:40;;;;;;;27.75;22.52;;;7.70;99.90;;;;;;12429107;28;20131;-36
2024/03/06 16:44:42;;;;;;;31.50;24.42;;;7.60;99.90;;;;;;12432653;28;20046;-35
2024/03/06 16:50:44;;;;;;;29.60;21.83;;;7.60;99.90;;;;;;12407472;28;20384;-35
2024/03/06 16:56:46;;;;;;;30.75;24.08;;;7.50;99.90;;;;;;12407316;28;20060;-36
2024/03/06 17:02:48;;;;;;;27.58;21.67;;;7.50;99.90;;;;;;12401646;28;20120;-36
2024/03/06 17:08:50;;;;;;;25.35;21.23;;;7.50;99.90;;;;;;12416173;28;20050;-35
2024/03/06 17:14:52;;;;;;;26.45;21.25;;;7.50;99.90;;;;;;12420590;28;20053;-36
2024/03/06 17:20:54;;;;;;;27.75;23.10;;;7.40;99.90;;;;;;12415301;28;20042;-35
2024/03/06 17:26:56;;;;;;;28.77;22.58;;;7.30;99.90;;;;;;12414412;28;20507;-36
2024/03/06 17:32:58;;;;;;;32.33;23.00;;;7.30;99.90;;;;;;12412787;28;20092;-35
2024/03/06 17:39:00;;;;;;;28.30;21.60;;;7.30;99.90;;;;;;12422088;28;20050;-35
2024/03/06 17:45:01;;;;;;;28.70;23.17;;;7.40;99.90;;;;;;12406303;28;20368;-36
2024/03/06 17:51:03;;;;;;;30.58;21.63;;;7.40;99.90;;;;;;12424427;28;20500;-35
2024/03/06 17:57:05;;;;;;;28.52;21.88;;;7.40;99.90;;;;;;12430160;28;20045;-36
2024/03/06 18:03:08;;;;;;;32.20;21.92;;;7.40;99.90;;;;;;12437702;28;20053;-35
2024/03/06 18:09:14;;;;;;;29.35;23.13;;;7.40;99.90;;;;;;12427163;28;20044;-36
2024/03/06 18:15:16;;;;;;;31.75;23.00;;;7.30;99.90;;;;;;12440736;28;20465;-36
2024/03/06 18:21:18;;;;;;;35.38;23.65;;;7.20;99.90;;;;;;12431734;28;20418;-36
2024/03/06 18:27:20;;;;;;;32.95;21.83;;;7.20;99.90;;;;;;12434214;28;20517;-36
2024/03/06 18:33:22;;;;;;;30.00;22.02;;;7.20;99.90;;;;;;12395507;28;1102792;-36
2024/03/06 18:39:24;;;;;;;35.25;22.52;;;7.20;99.90;;;;;;12437841;28;20054;-35
2024/03/06 18:45:27;;;;;;;27.58;21.55;;;7.20;99.90;;;;;;12435184;28;20050;-36
2024/03/06 18:51:28;;;;;;;31.38;23.80;;;7.20;99.90;;;;;;12419796;28;20119;-36
2024/03/06 18:57:30;;;;;;;30.85;21.40;;;7.20;99.90;;;;;;12405657;28;20128;-36
2024/03/06 19:03:33;;;;;;;30.40;21.25;;;7.20;99.90;;;;;;12426390;28;20096;-35
2024/03/06 19:09:34;;;;;;;30.73;22.08;;;7.20;99.90;;;;;;12418519;28;20077;-35
2024/03/06 19:15:36;;;;;;;32.15;22.55;;;7.20;99.90;;;;;;12434733;28;20085;-36
2024/03/06 19:21:39;;;;;;;32.63;23.30;;;7.20;99.90;;;;;;12425497;28;20362;-35
2024/03/06 19:27:42;;;;;;;31.42;23.23;;;7.10;99.90;;;;;;12419999;28;20049;-35
2024/03/06 19:33:44;;;;;;;29.33;23.10;;;7.00;99.90;;;;;;12424750;28;20536;-35
2024/03/06 19:39:46;;;;;;;33.85;23.92;;;7.00;99.90;;;;;;12419985;28;20740;-35
2024/03/06 19:45:48;;;;;;;29.02;22.92;;;7.00;99.90;;;;;;12417939;28;20103;-35
2024/03/06 19:51:51;;;;;;;33.83;23.25;;;6.90;99.90;;;;;;12432682;28;20129;-35
2024/03/06 19:57:53;;;;;;;29.48;22.20;;;6.70;99.90;;;;;;12433872;28;20088;-35
2024/03/06 20:03:56;;;;;;;32.55;21.60;;;6.60;99.90;;;;;;12432796;28;20050;-35
2024/03/06 20:09:58;;;;;;;28.52;21.08;;;6.60;99.90;;;;;;12435456;28;20073;-36
2024/03/06 20:16:00;;;;;;;32.28;22.88;;;6.60;99.90;;;;;;12434188;28;20092;-35
2024/03/06 20:22:02;;;;;;;32.25;21.55;;;6.50;99.90;;;;;;12433343;28;20054;-35
2024/03/06 20:28:08;;;;;;;31.48;21.90;;;6.40;99.90;;;;;;12432369;28;20129;-35
2024/03/06 20:34:10;;;;;;;36.85;22.90;;;6.30;99.90;;;;;;12425774;28;20088;-34
2024/03/06 20:40:12;;;;;;;32.55;21.88;;;6.40;99.90;;;;;;12426586;28;20046;-36
2024/03/06 20:46:14;;;;;;;32.08;21.58;;;6.10;99.90;;;;;;12435193;28;20184;-35
2024/03/06 20:52:15;;;;;;;30.00;20.17;;;6.10;99.90;;;;;;12412332;28;20053;-36
2024/03/06 20:58:17;;;;;;;27.90;17.92;;;6.00;99.90;;;;;;12414734;28;20089;-36
2024/03/06 21:04:19;;;;;;;26.70;19.02;;;6.00;99.90;;;;;;12421284;28;20077;-35
2024/03/06 21:10:21;;;;;;;25.00;18.50;;;5.90;99.90;;;;;;12412712;28;20050;-35
2024/03/06 21:16:23;;;;;;;22.88;16.02;;;5.80;99.90;;;;;;12420276;28;20104;-35
2024/03/06 21:22:25;;;;;;;22.90;16.40;;;5.70;99.90;;;;;;12415889;28;20050;-35
2024/03/06 21:28:28;;;;;;;22.17;15.90;;;5.60;99.90;;;;;;12416929;28;20052;-35
2024/03/06 21:34:30;;;;;;;23.92;16.35;;;5.50;99.90;;;;;;12392991;28;20064;-35
2024/03/06 21:40:32;;;;;;;21.98;15.68;;;5.50;99.90;;;;;;12404450;28;20053;-35
2024/03/06 21:46:34;;;;;;;22.95;16.80;;;5.40;99.90;;;;;;12418599;28;20118;-35
2024/03/06 21:52:36;;;;;;;25.75;15.52;;;5.30;99.90;;;;;;12434387;28;20046;-35
2024/03/06 21:58:38;;;;;;;24.52;16.30;;;5.30;99.90;;;;;;12431813;28;20046;-35
2024/03/06 22:04:40;;;;;;;21.20;13.88;;;5.20;99.90;;;;;;12411585;28;20089;-35
2024/03/06 22:10:41;;;;;;;20.23;14.77;;;5.10;99.90;;;;;;12430706;28;20073;-35
2024/03/06 22:16:47;;;;;;;20.08;14.73;;;5.00;99.90;;;;;;12436333;28;20049;-35
2024/03/06 22:22:48;;;;;;;19.58;13.98;;;5.00;99.90;;;;;;12432966;28;20137;-35
2024/03/06 22:28:50;;;;;;;20.95;14.50;;;4.90;99.90;;;;;;12432885;28;20069;-35
2024/03/06 22:34:52;;;;;;;21.52;14.13;;;4.80;99.90;;;;;;12436575;28;20137;-35
2024/03/06 22:40:54;;;;;;;19.90;14.43;;;4.70;99.90;;;;;;12414521;28;20149;-35
2024/03/06 22:46:56;;;;;;;19.55;14.23;;;4.60;99.90;;;;;;12401884;28;20140;-36
2024/03/06 22:53:01;;;;;;;19.85;14.68;;;4.50;99.90;;;;;;12380269;28;20041;-35
2024/03/06 22:59:03;;;;;;;23.45;14.70;;;4.30;99.90;;;;;;12414508;28;20049;-35
2024/03/06 23:05:05;;;;;;;20.98;14.02;;;4.20;99.90;;;;;;12419511;28;20080;-36
2024/03/06 23:11:10;;;;;;;20.98;14.63;;;4.30;99.90;;;;;;12422877;28;20046;-35
2024/03/06 23:17:12;;;;;;;20.67;14.23;;;4.00;99.90;;;;;;12420817;28;20053;-35
2024/03/06 23:23:14;;;;;;;21.70;14.43;;;3.90;99.90;;;;;;12420091;28;20391;-35
2024/03/06 23:29:16;;;;;;;17.67;13.88;;;4.00;99.90;;;;;;12412955;28;20073;-35
2024/03/06 23:35:18;;;;;;;21.65;14.35;;;4.30;99.90;;;;;;12427691;28;20066;-35
2024/03/06 23:41:20;;;;;;;18.95;13.00;;;4.50;99.90;;;;;;12411460;28;20136;-35
2024/03/06 23:47:22;;;;;;;22.15;13.25;;;4.50;99.90;;;;;;12426572;28;20038;-36
2024/03/06 23:53:24;;;;;;;19.83;13.52;;;4.50;99.90;;;;;;12411940;28;20128;-35
2024/03/06 23:59:27;;;;;;;19.77;13.63;;;4.50;99.90;;;;;;12439433;28;20085;-35
